Terminal Aerodrome Forecast
Issued by NWS

Home | Current Version | Previous Version | Text Only | Print | Product List | Glossary On
Versions: 1 2 3 4 5 6 7 8 9 10 11 12 13 14 15 16 17 18 19
000
FTUS44 KSJT 251600 AAA
TAFBBD
TAF AMD
KBBD 251649Z 2517/2612 17009KT P6SM FEW040
     FM251900 22014G20KT P6SM VCTS BKN025CB
     FM252000 20015G20KT P6SM BKN080
     FM260000 18007KT P6SM SKC
     FM260800 17006KT P6SM BKN015=

USA.gov is the U.S. government's official web portal to all federal, state and local government web resources and services.